Time;durP1;ratioP1;P1;durP2;ratioP2;P2;SDS_P1;SDS_P2;PMS_P1;PMS_P2;Temp;Humidity;BMP_temperature;BMP_pressure;BME280_temperature;BME280_humidity;BME280_pressure;Samples;Min_cycle;Max_cycle;Signal;HPM_P1;HPM_P2
2022/03/10 03:03:22;;;;;;;45.80;23.85;;;;;;;-145.18;100.00;47592.25;4968125;23;20052;-67
2022/03/10 03:05:47;;;;;;;49.60;23.97;;;;;;;-145.18;100.00;47600.06;4935050;29;20043;-67
2022/03/10 03:08:13;;;;;;;43.27;23.20;;;;;;;-145.18;100.00;47603.97;4935751;29;20063;-67
2022/03/10 03:10:38;;;;;;;57.03;24.07;;;;;;;-145.18;100.00;47580.53;4935910;29;20051;-67
2022/03/10 03:13:07;;;;;;;51.13;23.83;;;;;;;-145.18;100.00;47590.28;4935743;29;20070;-67
2022/03/10 03:15:32;;;;;;;48.30;23.92;;;;;;;-145.18;100.00;47607.88;4935835;29;20384;-67
2022/03/10 03:17:58;;;;;;;52.83;23.27;;;;;;;-145.18;100.00;47590.28;4935211;29;20046;-67
2022/03/10 03:20:23;;;;;;;44.97;23.07;;;;;;;-145.18;100.00;47598.09;4936141;29;20138;-67
2022/03/10 03:22:48;;;;;;;46.93;23.43;;;;;;;-145.18;100.00;47594.19;4933252;28;20118;-67
2022/03/10 03:25:14;;;;;;;47.23;24.47;;;;;;;-145.18;100.00;47600.06;4915652;29;20042;-67
2022/03/10 03:27:43;;;;;;;50.05;22.63;;;;;;;-145.18;100.00;47615.69;4932111;29;20028;-67
2022/03/10 03:30:09;;;;;;;49.78;23.63;;;;;;;-145.18;100.00;47607.88;4932728;29;20118;-67
2022/03/10 03:32:34;;;;;;;48.33;22.90;;;;;;;-145.18;100.00;47596.16;4932252;29;20041;-67
2022/03/10 03:35:00;;;;;;;49.00;21.93;;;;;;;-145.18;100.00;47588.34;4932308;29;20048;-67
2022/03/10 03:37:25;;;;;;;48.10;23.17;;;;;;;-145.18;100.00;47621.56;4931945;29;20044;-67
2022/03/10 03:39:51;;;;;;;52.73;23.57;;;;;;;-145.18;100.00;47623.50;4931531;29;20043;-67
2022/03/10 03:42:16;;;;;;;43.00;22.60;;;;;;;-145.18;100.00;47600.06;4932795;29;20051;-67
2022/03/10 03:44:42;;;;;;;44.53;22.83;;;;;;;-145.18;100.00;47596.16;4932590;29;20126;-68
2022/03/10 03:47:07;;;;;;;44.53;23.13;;;;;;;-145.18;100.00;47613.75;4931505;29;20559;-68
2022/03/10 03:49:33;;;;;;;46.40;23.93;;;;;;;-145.18;100.00;47619.59;4932437;29;20047;-67
2022/03/10 03:51:58;;;;;;;49.00;23.83;;;;;;;-145.18;100.00;47596.16;4931001;29;20044;-67
2022/03/10 03:54:24;;;;;;;45.20;23.40;;;;;;;-145.18;100.00;47570.75;4932158;29;20079;-67
2022/03/10 03:56:50;;;;;;;43.47;23.57;;;;;;;-145.18;100.00;47594.19;4932160;29;20047;-67
2022/03/10 03:59:15;;;;;;;47.10;23.20;;;;;;;-145.18;100.00;47615.69;4931967;29;20036;-68
2022/03/10 04:01:40;;;;;;;48.00;23.33;;;;;;;-145.18;100.00;47592.25;4931457;29;20251;-67
2022/03/10 04:04:06;;;;;;;45.43;22.87;;;;;;;-145.18;100.00;47586.38;4931315;29;20401;-67
2022/03/10 04:06:31;;;;;;;48.20;24.27;;;;;;;-145.18;100.00;47598.09;4931992;29;20505;-67
2022/03/10 04:08:57;;;;;;;51.27;23.20;;;;;;;-145.18;100.00;47598.09;4924530;29;20044;-67
2022/03/10 04:11:22;;;;;;;46.33;23.90;;;;;;;-145.18;100.00;47625.47;4913828;29;20607;-67
2022/03/10 04:13:48;;;;;;;47.60;23.97;;;;;;;-145.18;100.00;47600.06;4912832;29;20072;-67
2022/03/10 04:16:14;;;;;;;49.93;24.53;;;;;;;-145.18;100.00;47596.16;4912051;29;20501;-67
2022/03/10 04:18:39;;;;;;;46.57;23.63;;;;;;;-145.18;100.00;47605.94;4912471;29;20378;-67
2022/03/10 04:21:04;;;;;;;43.07;23.57;;;;;;;-145.18;100.00;47617.66;4912893;29;20103;-67
2022/03/10 04:23:30;;;;;;;46.17;23.50;;;;;;;-145.18;100.00;47615.69;4912535;29;20119;-68
2022/03/10 04:25:55;;;;;;;45.13;22.27;;;;;;;-145.18;100.00;47646.97;4912690;29;20059;-67
2022/03/10 04:28:22;;;;;;;52.80;23.67;;;;;;;-145.18;100.00;47598.09;4912459;29;20044;-67
2022/03/10 04:30:48;;;;;;;46.00;23.83;;;;;;;-145.18;100.00;47611.78;4912476;29;20080;-67
2022/03/10 04:33:13;;;;;;;49.60;24.30;;;;;;;-145.18;100.00;47603.97;4912560;29;20048;-67
2022/03/10 04:35:38;;;;;;;49.00;24.10;;;;;;;-145.18;100.00;47645.00;4912456;29;20278;-67
2022/03/10 04:38:04;;;;;;;48.33;23.43;;;;;;;-145.18;100.00;47607.88;4912038;29;20572;-67
2022/03/10 04:40:31;;;;;;;48.90;25.67;;;;;;;-145.18;100.00;47617.66;4896423;29;20036;-67
2022/03/10 04:42:57;;;;;;;53.95;24.67;;;;;;;-145.18;100.00;47598.09;4912053;29;20040;-67
2022/03/10 04:45:22;;;;;;;42.63;23.33;;;;;;;-145.18;100.00;47615.69;4912550;29;20108;-67
2022/03/10 04:47:48;;;;;;;43.93;23.03;;;;;;;-145.18;100.00;47627.41;4894965;29;20038;-67
2022/03/10 04:50:15;;;;;;;50.33;23.40;;;;;;;-145.18;100.00;47658.69;4912363;29;20044;-67
2022/03/10 04:52:41;;;;;;;47.90;23.77;;;;;;;-145.18;100.00;47633.28;4912121;29;20521;-67
2022/03/10 04:55:07;;;;;;;50.33;24.05;;;;;;;-145.18;100.00;47637.19;4912107;29;20523;-67
2022/03/10 04:57:34;;;;;;;46.40;22.90;;;;;;;-145.18;100.00;47637.19;4912418;29;20051;-67
2022/03/10 04:59:59;;;;;;;48.33;22.80;;;;;;;-145.18;100.00;47643.03;4912216;29;20044;-67
2022/03/10 05:02:24;;;;;;;50.77;24.73;;;;;;;-145.18;100.00;47637.19;4911754;29;20068;-67
2022/03/10 05:04:50;;;;;;;49.43;24.07;;;;;;;-145.18;100.00;47643.03;4911946;29;20044;-67
2022/03/10 05:07:15;;;;;;;50.23;23.83;;;;;;;-145.18;100.00;47652.81;4911410;29;20147;-67
2022/03/10 05:09:40;;;;;;;46.77;23.77;;;;;;;-145.18;100.00;47658.69;4912341;29;20054;-67
2022/03/10 05:12:06;;;;;;;45.23;22.90;;;;;;;-145.18;100.00;47656.72;4912177;29;20796;-67
2022/03/10 05:14:32;;;;;;;50.07;23.80;;;;;;;-145.18;100.00;47648.91;4912033;29;20115;-67
2022/03/10 05:16:57;;;;;;;46.80;22.83;;;;;;;-145.18;100.00;47670.41;4911599;29;20067;-67
2022/03/10 05:19:23;;;;;;;47.90;23.17;;;;;;;-145.18;100.00;47652.81;4894274;29;20059;-67
2022/03/10 05:21:49;;;;;;;43.78;22.52;;;;;;;-145.18;100.00;47660.63;4911563;29;20044;-67
2022/03/10 05:24:15;;;;;;;45.23;23.00;;;;;;;-145.18;100.00;47682.13;4894787;29;20044;-67
2022/03/10 05:26:40;;;;;;;48.43;22.87;;;;;;;-145.18;100.00;47672.34;4912323;29;20047;-67
2022/03/10 05:29:05;;;;;;;47.03;22.67;;;;;;;-145.18;100.00;47672.34;4891387;29;20048;-67
2022/03/10 05:31:31;;;;;;;49.30;23.23;;;;;;;-145.18;100.00;47682.13;4902113;29;20048;-67
2022/03/10 05:33:56;;;;;;;48.13;22.90;;;;;;;-145.18;100.00;47684.06;4917093;29;20075;-67
2022/03/10 05:36:22;;;;;;;51.20;24.50;;;;;;;-145.18;100.00;47691.91;4901951;29;20496;-67
2022/03/10 05:38:47;;;;;;;49.40;24.70;;;;;;;-145.18;100.00;47664.53;4899433;29;20052;-67
2022/03/10 05:41:14;;;;;;;47.90;24.03;;;;;;;-145.18;100.00;47678.22;4902586;29;20040;-67
2022/03/10 05:43:39;;;;;;;47.85;23.85;;;;;;;-145.18;100.00;47672.34;4901291;29;20044;-67
2022/03/10 05:46:05;;;;;;;46.97;23.33;;;;;;;-145.18;100.00;47687.97;4899407;29;20045;-67
2022/03/10 05:48:30;;;;;;;44.27;21.77;;;;;;;-145.18;100.00;47664.53;4908242;29;20052;-67
2022/03/10 05:50:56;;;;;;;47.70;22.27;;;;;;;-145.18;100.00;47693.84;4911180;29;20040;-67
2022/03/10 05:53:22;;;;;;;43.07;22.70;;;;;;;-145.18;100.00;47687.97;4911134;29;20040;-67
2022/03/10 05:55:47;;;;;;;48.47;23.47;;;;;;;-145.18;100.00;47602.00;4911563;29;20497;-68
2022/03/10 05:58:13;;;;;;;49.20;23.43;;;;;;;-145.18;100.00;47514.09;4909253;29;20123;-67
2022/03/10 06:00:39;;;;;;;51.78;22.67;;;;;;;-145.18;100.00;47496.50;4911411;29;20502;-67
2022/03/10 06:03:06;;;;;;;45.37;23.77;;;;;;;-145.18;100.00;47492.59;4895365;29;20044;-68
2022/03/10 06:05:32;;;;;;;49.75;24.05;;;;;;;-145.18;100.00;47449.63;4892317;29;20048;-67
2022/03/10 06:07:57;;;;;;;49.60;23.90;;;;;;;-145.18;100.00;47506.28;4874997;29;20040;-67
2022/03/10 06:10:24;;;;;;;45.97;22.67;;;;;;;-145.18;100.00;47453.53;4901728;29;20412;-68
2022/03/10 06:12:49;;;;;;;44.42;22.05;;;;;;;-145.18;100.00;47392.97;4908929;29;20044;-67
2022/03/10 06:15:15;;;;;;;44.93;23.07;;;;;;;-145.18;100.00;47238.63;4910388;29;20044;-67
2022/03/10 06:17:41;;;;;;;52.23;23.43;;;;;;;-145.18;100.00;47121.41;4893311;29;20044;-67
2022/03/10 06:20:07;;;;;;;52.10;23.33;;;;;;;-145.18;100.00;47113.59;4910496;29;20544;-67
2022/03/10 06:22:33;;;;;;;45.45;22.95;;;;;;;-145.18;100.00;47066.72;4910563;29;20055;-67
2022/03/10 06:24:59;;;;;;;45.40;22.02;;;;;;;-145.18;100.00;47178.06;4893954;29;20040;-67
2022/03/10 06:27:25;;;;;;;47.63;22.97;;;;;;;-145.18;100.00;47262.06;4911043;29;20564;-67
2022/03/10 06:29:52;;;;;;;49.58;22.83;;;;;;;-145.18;100.00;47221.03;4925641;29;20043;-67
2022/03/10 06:32:18;;;;;;;43.67;21.58;;;;;;;-145.18;100.00;47396.88;4929844;29;20039;-68
2022/03/10 06:34:44;;;;;;;40.88;21.02;;;;;;;-145.18;100.00;47590.28;4920649;29;20040;-67
2022/03/10 06:37:10;;;;;;;49.25;22.27;;;;;;;-145.18;100.00;47660.63;4910492;29;20040;-67
2022/03/10 06:39:36;;;;;;;48.35;23.70;;;;;;;-145.18;100.00;47625.47;4910547;29;20127;-67
2022/03/10 06:42:02;;;;;;;52.50;23.73;;;;;;;-145.18;100.00;47631.31;4910265;29;20127;-67
2022/03/10 06:44:29;;;;;;;43.33;22.08;;;;;;;-145.18;100.00;47633.28;4910781;29;20044;-67
2022/03/10 06:46:55;;;;;;;53.67;23.08;;;;;;;-145.18;100.00;47650.88;4910613;29;20044;-68
2022/03/10 06:49:21;;;;;;;50.17;23.27;;;;;;;-145.18;100.00;47682.13;4910334;29;20040;-67
2022/03/10 06:51:48;;;;;;;47.47;23.52;;;;;;;-145.18;100.00;47646.97;4910650;29;20043;-67
2022/03/10 06:54:14;;;;;;;47.80;21.55;;;;;;;-145.18;100.00;47646.97;4906646;29;20722;-67
2022/03/10 06:56:39;;;;;;;46.90;22.53;;;;;;;-145.18;100.00;47645.00;4905775;29;20103;-68
2022/03/10 06:59:05;;;;;;;54.27;21.80;;;;;;;-145.18;100.00;47639.13;4915668;29;20551;-67
2022/03/10 07:01:31;;;;;;;44.22;21.42;;;;;;;-145.18;100.00;47594.19;4915656;29;20267;-66
2022/03/10 07:03:57;;;;;;;46.77;22.47;;;;;;;-145.18;100.00;47621.56;4912142;29;20222;-66
2022/03/10 07:06:23;;;;;;;45.40;21.33;;;;;;;-145.18;100.00;47615.69;4914969;29;20040;-66
2022/03/10 07:08:49;;;;;;;49.03;22.00;;;;;;;-145.18;100.00;47582.47;4930434;29;20044;-66
2022/03/10 07:11:15;;;;;;;41.87;21.73;;;;;;;-145.18;100.00;47580.53;4932693;29;20765;-66
2022/03/10 07:13:40;;;;;;;44.10;21.87;;;;;;;-145.18;100.00;47603.97;4932353;29;20573;-67
2022/03/10 07:16:05;;;;;;;40.27;20.70;;;;;;;-145.18;100.00;47611.78;4910693;29;20051;-66
2022/03/10 07:18:31;;;;;;;42.47;22.30;;;;;;;-145.18;100.00;47592.25;4912193;29;20139;-69
2022/03/10 07:20:56;;;;;;;43.80;22.97;;;;;;;-145.18;100.00;47590.28;4912059;29;20041;-66
2022/03/10 07:23:22;;;;;;;47.63;21.33;;;;;;;-145.18;100.00;47576.63;4919812;29;20036;-66
2022/03/10 07:25:47;;;;;;;45.37;22.27;;;;;;;-145.18;100.00;47574.66;4932036;29;20040;-67
2022/03/10 07:28:13;;;;;;;42.73;22.00;;;;;;;-145.18;100.00;47561.00;4932685;29;20051;-66
2022/03/10 07:30:38;;;;;;;49.40;23.33;;;;;;;-145.18;100.00;47551.22;4915630;29;20670;-66
2022/03/10 07:33:03;;;;;;;47.80;23.10;;;;;;;-145.18;100.00;47559.03;4931998;29;20086;-67
2022/03/10 07:35:29;;;;;;;44.03;22.17;;;;;;;-145.18;100.00;47553.16;4932234;29;20044;-66
2022/03/10 07:37:56;;;;;;;45.50;21.77;;;;;;;-145.18;100.00;47539.50;4931765;29;20097;-66
2022/03/10 07:40:22;;;;;;;41.72;21.85;;;;;;;-145.18;100.00;47545.34;4931526;29;20044;-66
2022/03/10 07:42:48;;;;;;;44.60;20.92;;;;;;;-145.18;100.00;47510.19;4932428;29;20122;-66
2022/03/10 07:45:13;;;;;;;43.70;20.77;;;;;;;-145.18;100.00;47527.78;4932073;29;20171;-67
2022/03/10 07:47:39;;;;;;;51.53;22.97;;;;;;;-145.18;100.00;47529.72;4914619;29;20043;-67
2022/03/10 07:50:06;;;;;;;47.10;21.17;;;;;;;-145.18;100.00;47500.41;4931539;29;20138;-67
2022/03/10 07:52:32;;;;;;;45.25;22.92;;;;;;;-145.18;100.00;47490.66;4913396;29;20519;-66
2022/03/10 07:54:57;;;;;;;44.77;21.83;;;;;;;-145.18;100.00;47490.66;4912405;29;20066;-66
2022/03/10 07:57:22;;;;;;;44.43;21.63;;;;;;;-145.18;100.00;47490.66;4912683;29;20040;-66
2022/03/10 07:59:48;;;;;;;44.53;22.30;;;;;;;-145.18;100.00;47498.47;4912664;29;20074;-66
2022/03/10 08:02:13;;;;;;;43.60;21.60;;;;;;;-145.18;100.00;47506.28;4912777;29;20033;-66
2022/03/10 08:04:39;;;;;;;46.37;22.97;;;;;;;-145.18;100.00;47451.56;4912468;29;20048;-66
2022/03/10 08:07:05;;;;;;;43.53;22.20;;;;;;;-145.18;100.00;47494.56;4912600;29;20044;-66
2022/03/10 08:09:31;;;;;;;45.13;23.97;;;;;;;-145.18;100.00;47476.97;4911527;29;20421;-67
2022/03/10 08:11:56;;;;;;;43.93;21.30;;;;;;;-145.18;100.00;47476.97;4912280;29;20048;-67
2022/03/10 08:14:21;;;;;;;47.80;22.60;;;;;;;-145.18;100.00;47490.66;4912672;29;20104;-67
2022/03/10 08:16:47;;;;;;;43.53;22.67;;;;;;;-145.18;100.00;47469.16;4904026;29;20048;-67
2022/03/10 08:19:12;;;;;;;42.63;21.50;;;;;;;-145.18;100.00;47457.44;4895009;29;20048;-66
2022/03/10 08:21:38;;;;;;;49.57;23.67;;;;;;;-145.18;100.00;47451.56;4902120;29;20107;-67
2022/03/10 08:24:05;;;;;;;49.30;23.90;;;;;;;-145.18;100.00;47478.94;4902288;29;20047;-67
2022/03/10 08:26:30;;;;;;;43.03;22.73;;;;;;;-145.18;100.00;47445.72;4902340;29;20071;-68
2022/03/10 08:28:56;;;;;;;44.83;22.93;;;;;;;-145.18;100.00;47430.09;4895969;29;20366;-68
2022/03/10 08:31:21;;;;;;;38.13;22.17;;;;;;;-145.18;100.00;47424.22;4893725;29;20115;-68
2022/03/10 08:33:47;;;;;;;44.73;22.67;;;;;;;-145.18;100.00;47426.19;4893022;29;20536;-68
2022/03/10 08:36:13;;;;;;;42.50;23.87;;;;;;;-145.18;100.00;47441.81;4898626;29;20044;-68
2022/03/10 08:38:39;;;;;;;44.77;23.13;;;;;;;-145.18;100.00;47422.28;4906860;29;20524;-69
2022/03/10 08:41:04;;;;;;;44.87;23.43;;;;;;;-145.18;100.00;47428.13;4907937;29;20401;-69
2022/03/10 08:43:31;;;;;;;43.53;23.60;;;;;;;-145.18;100.00;47441.81;4900880;29;20085;-68
2022/03/10 08:45:57;;;;;;;43.63;23.30;;;;;;;-145.18;100.00;47422.28;4903234;29;20055;-67
2022/03/10 08:48:22;;;;;;;43.33;23.00;;;;;;;-145.18;100.00;47420.31;4901275;29;20287;-67
2022/03/10 08:50:48;;;;;;;47.50;23.50;;;;;;;-145.18;100.00;47402.72;4894139;29;20354;-67
2022/03/10 08:53:13;;;;;;;42.97;23.27;;;;;;;-145.18;100.00;47392.97;4892801;29;20126;-66
2022/03/10 08:55:38;;;;;;;44.50;22.27;;;;;;;-145.18;100.00;47396.88;4901709;29;20052;-67
2022/03/10 08:58:04;;;;;;;42.77;22.30;;;;;;;-145.18;100.00;47391.00;4930076;29;20046;-67
2022/03/10 09:00:29;;;;;;;47.70;23.37;;;;;;;-145.18;100.00;47387.09;4930206;29;20051;-67
2022/03/10 09:02:58;;;;;;;42.23;22.17;;;;;;;-145.18;100.00;47391.00;4905430;29;20119;-66
2022/03/10 09:05:24;;;;;;;46.17;21.57;;;;;;;-145.18;100.00;47379.28;4911762;29;20520;-67
2022/03/10 09:07:49;;;;;;;45.57;23.20;;;;;;;-145.18;100.00;47379.28;4911070;29;20286;-67
2022/03/10 09:10:15;;;;;;;38.20;21.33;;;;;;;-145.18;100.00;47379.28;4911756;29;20412;-67
2022/03/10 09:12:41;;;;;;;44.10;22.23;;;;;;;-145.18;100.00;47369.53;4912301;29;20873;-66
2022/03/10 09:15:07;;;;;;;45.53;23.10;;;;;;;-145.18;100.00;47361.72;4910877;29;20043;-67
2022/03/10 09:17:33;;;;;;;45.30;22.30;;;;;;;-145.18;100.00;47353.88;4911451;29;20044;-69
2022/03/10 09:19:58;;;;;;;43.10;23.03;;;;;;;-145.18;100.00;47357.78;4911174;29;20329;-67
2022/03/10 09:22:25;;;;;;;38.53;20.87;;;;;;;-145.18;100.00;47340.22;4909910;29;20131;-68
2022/03/10 09:24:52;;;;;;;45.93;22.30;;;;;;;-145.18;100.00;47363.66;4910742;29;20047;-66
2022/03/10 09:27:18;;;;;;;50.57;22.50;;;;;;;-145.18;100.00;47324.59;4910960;29;20369;-67
2022/03/10 09:29:44;;;;;;;41.17;22.53;;;;;;;-145.18;100.00;47340.22;4911469;29;20399;-66
2022/03/10 09:32:09;;;;;;;45.70;23.50;;;;;;;-145.18;100.00;47332.41;4904478;29;20425;-67
2022/03/10 09:34:35;;;;;;;39.00;22.10;;;;;;;-145.18;100.00;47312.88;4893439;29;20580;-66
2022/03/10 09:37:00;;;;;;;44.80;22.33;;;;;;;-145.18;100.00;47308.97;4910331;29;20478;-67
2022/03/10 09:39:26;;;;;;;40.80;22.63;;;;;;;-145.18;100.00;47312.88;4893925;29;20067;-67
2022/03/10 09:41:54;;;;;;;43.33;22.40;;;;;;;-145.18;100.00;47320.69;4893602;29;20075;-67
2022/03/10 09:44:21;;;;;;;42.20;23.00;;;;;;;-145.18;100.00;47312.88;4911017;29;20127;-66
2022/03/10 09:46:50;;;;;;;41.63;21.80;;;;;;;-145.18;100.00;47316.78;4911232;29;20262;-66
2022/03/10 09:49:25;;;;;;;43.90;22.40;;;;;;;-145.18;100.00;47318.72;4910232;29;20318;-67
2022/03/10 09:51:51;;;;;;;42.38;24.48;;;;;;;-145.18;100.00;47297.22;4910818;29;20410;-67
2022/03/10 09:54:17;;;;;;;37.03;22.10;;;;;;;-145.18;100.00;47299.19;4910472;29;20051;-67
2022/03/10 09:56:43;;;;;;;39.90;22.40;;;;;;;-145.18;100.00;47305.06;4910720;29;20044;-67
2022/03/10 09:59:09;;;;;;;37.17;21.60;;;;;;;-145.18;100.00;47281.59;4909794;29;20079;-67
2022/03/10 10:01:35;;;;;;;38.13;21.23;;;;;;;-145.18;100.00;47269.88;4909791;29;20044;-67
2022/03/10 10:04:00;;;;;;;40.10;20.73;;;;;;;-145.18;100.00;47273.78;4898696;29;20315;-67
2022/03/10 10:06:26;;;;;;;38.43;20.60;;;;;;;-145.18;100.00;47287.47;4892683;29;20466;-67
2022/03/10 10:08:57;;;;;;;40.67;21.73;;;;;;;-145.18;100.00;47260.13;4890950;29;20052;-67
2022/03/10 10:11:33;;;;;;;40.07;23.40;;;;;;;-145.18;100.00;47254.25;4892862;29;20045;-67
2022/03/10 10:13:59;;;;;;;38.22;20.42;;;;;;;-145.18;100.00;47252.31;4911013;29;20301;-67
2022/03/10 10:16:25;;;;;;;39.27;19.83;;;;;;;-145.18;100.00;47262.06;4902734;29;21584;-67
2022/03/10 10:18:58;;;;;;;38.27;21.17;;;;;;;-145.18;100.00;47265.97;4900550;29;20286;-67
2022/03/10 10:21:25;;;;;;;35.80;20.90;;;;;;;-145.18;100.00;47240.56;4901632;29;20139;-67
2022/03/10 10:23:53;;;;;;;35.80;20.27;;;;;;;-145.18;100.00;47244.50;4909617;29;20290;-67
2022/03/10 10:26:20;;;;;;;39.07;20.50;;;;;;;-145.18;100.00;47228.84;4905853;29;20291;-67
2022/03/10 10:28:50;;;;;;;40.83;21.27;;;;;;;-145.18;100.00;47238.63;4912444;29;20301;-67
2022/03/10 10:31:17;;;;;;;41.00;22.43;;;;;;;-145.18;100.00;47221.03;4906422;29;20287;-67
2022/03/10 10:33:55;;;;;;;35.33;20.10;;;;;;;-145.18;100.00;47219.09;4909345;29;20282;-66
2022/03/10 10:36:24;;;;;;;37.03;19.83;;;;;;;-145.18;100.00;47215.19;4911097;29;20859;-67
2022/03/10 10:38:52;;;;;;;39.83;20.33;;;;;;;-145.18;100.00;47213.22;4904018;29;20374;-67
2022/03/10 10:41:26;;;;;;;32.63;19.60;;;;;;;-145.18;100.00;47209.31;4915358;29;20290;-67
2022/03/10 10:43:57;;;;;;;35.93;19.57;;;;;;;-145.18;100.00;47209.31;4906934;29;20278;-67
2022/03/10 10:46:24;;;;;;;38.37;19.83;;;;;;;-145.18;100.00;47207.38;4908045;29;20290;-67
2022/03/10 10:48:49;;;;;;;34.57;19.30;;;;;;;-145.18;100.00;47203.47;4918211;29;20357;-67
2022/03/10 10:51:26;;;;;;;34.67;19.57;;;;;;;-145.18;100.00;47199.56;4923333;29;20420;-67
2022/03/10 10:53:52;;;;;;;40.23;20.97;;;;;;;-145.18;100.00;47183.94;4921172;29;20051;-67
2022/03/10 10:56:18;;;;;;;33.60;20.13;;;;;;;-145.18;100.00;47193.69;4905637;29;20349;-67
2022/03/10 10:58:46;;;;;;;35.23;19.80;;;;;;;-145.18;100.00;47195.66;4910506;29;20309;-67
2022/03/10 11:01:28;;;;;;;30.20;18.93;;;;;;;-145.18;100.00;47195.66;4908335;29;20040;-67
2022/03/10 11:03:53;;;;;;;40.33;21.27;;;;;;;-145.18;100.00;47181.97;4930694;29;20054;-67
2022/03/10 11:06:20;;;;;;;42.80;23.80;;;;;;;-145.18;100.00;47176.09;4932611;29;20043;-67
2022/03/10 11:08:46;;;;;;;35.33;21.00;;;;;;;-145.18;100.00;47185.88;4932268;29;20060;-67
2022/03/10 11:11:15;;;;;;;35.80;18.90;;;;;;;-145.18;100.00;47150.72;4905880;29;20041;-67
2022/03/10 11:13:40;;;;;;;29.60;18.03;;;;;;;-145.18;99.86;47183.94;4893576;29;20045;-67
2022/03/10 11:16:08;;;;;;;34.70;18.87;;;;;;;-145.18;98.77;47178.06;4894420;29;20107;-67
2022/03/10 11:18:34;;;;;;;34.07;19.80;;;;;;;-145.18;99.13;47176.09;4910298;29;20124;-67
2022/03/10 11:21:14;;;;;;;32.97;18.83;;;;;;;-145.18;96.95;47166.34;4902977;29;20398;-67
2022/03/10 11:24:07;;;;;;;30.50;18.40;;;;;;;-145.18;97.41;47166.34;4906773;29;20047;-67
2022/03/10 11:26:40;;;;;;;30.23;17.30;;;;;;;-145.18;94.62;47152.66;4929432;29;20132;-67
2022/03/10 11:29:06;;;;;;;34.43;19.53;;;;;;;-145.18;95.95;47158.53;4912046;29;20040;-67
2022/03/10 11:31:34;;;;;;;33.80;19.63;;;;;;;-145.18;96.39;47156.56;4908896;29;20454;-67
2022/03/10 11:33:59;;;;;;;36.00;19.63;;;;;;;-145.18;95.81;47137.03;4894528;29;20037;-67
2022/03/10 11:36:28;;;;;;;33.77;18.20;;;;;;;-145.18;94.07;47154.63;4904803;29;20386;-67
2022/03/10 11:39:04;;;;;;;30.40;18.17;;;;;;;-145.18;92.59;47156.56;4894154;29;20446;-66
2022/03/10 11:41:44;;;;;;;31.17;18.43;;;;;;;-145.18;93.33;47144.84;4906989;29;20044;-67
2022/03/10 11:44:11;;;;;;;31.37;17.53;;;;;;;-145.18;93.12;47142.91;4910284;29;20036;-67
2022/03/10 11:47:00;;;;;;;33.10;19.00;;;;;;;-145.18;91.07;47148.75;4913276;29;20434;-67
2022/03/10 11:49:41;;;;;;;37.33;17.97;;;;;;;-145.18;89.43;47119.47;4895806;29;20416;-67
2022/03/10 11:52:40;;;;;;;33.03;17.70;;;;;;;-145.18;88.19;47135.09;4897944;29;20044;-67
2022/03/10 11:55:08;;;;;;;32.77;18.10;;;;;;;-145.18;87.24;47137.03;4901122;29;20126;-67
2022/03/10 11:57:52;;;;;;;34.17;18.47;;;;;;;-145.18;86.07;47125.31;4912921;29;20036;-67
2022/03/10 12:00:18;;;;;;;32.43;17.40;;;;;;;-145.18;83.78;47139.00;4912300;29;20036;-67
2022/03/10 12:02:43;;;;;;;29.50;16.67;;;;;;;-145.18;80.84;47109.69;4895468;29;20798;-67
2022/03/10 12:05:11;;;;;;;28.03;16.30;;;;;;;-145.18;80.30;47109.69;4911637;29;20036;-67
2022/03/10 12:07:40;;;;;;;22.73;15.07;;;;;;;-145.18;77.13;47097.97;4900602;29;20095;-67
2022/03/10 12:10:09;;;;;;;30.17;15.70;;;;;;;-145.18;76.07;47076.47;4891190;29;20513;-67
2022/03/10 12:12:37;;;;;;;25.83;14.60;;;;;;;-145.18;69.56;47072.56;4891876;29;20052;-66
2022/03/10 12:15:25;;;;;;;29.93;14.57;;;;;;;-145.18;67.21;47047.19;4893658;29;20509;-67
2022/03/10 12:17:53;;;;;;;26.17;14.37;;;;;;;-145.18;69.14;47045.22;4900828;29;20512;-67
2022/03/10 12:20:36;;;;;;;26.90;14.60;;;;;;;-145.18;67.14;47027.63;4910881;29;20637;-67
2022/03/10 12:23:12;;;;;;;27.03;14.37;;;;;;;-145.18;65.95;47006.16;4911066;29;20428;-67
2022/03/10 12:25:43;;;;;;;26.08;15.98;;;;;;;-145.18;64.57;46992.47;4911822;29;20044;-67
2022/03/10 12:28:11;;;;;;;23.93;14.27;;;;;;;-145.18;60.75;46969.03;4912392;29;20092;-67
2022/03/10 12:30:41;;;;;;;23.13;13.90;;;;;;;-145.18;60.93;46951.44;4911606;29;20501;-67
2022/03/10 12:33:07;;;;;;;23.30;13.43;;;;;;;-145.18;59.91;46943.63;4910952;29;20241;-67
2022/03/10 12:35:38;;;;;;;26.33;14.33;;;;;;;-145.18;52.98;46926.06;4911544;29;20550;-67
2022/03/10 12:38:04;;;;;;;22.63;14.47;;;;;;;-145.18;55.75;46898.72;4912296;29;20040;-67
2022/03/10 12:40:32;;;;;;;23.87;14.10;;;;;;;-145.18;50.73;46900.66;4910584;29;20161;-68
2022/03/10 12:43:09;;;;;;;20.30;13.77;;;;;;;-145.18;49.37;46869.41;4911987;29;20044;-67
2022/03/10 12:45:45;;;;;;;22.00;15.07;;;;;;;-145.18;47.95;46861.59;4911015;29;20044;-67
2022/03/10 12:48:36;;;;;;;26.87;14.83;;;;;;;-145.18;48.33;46883.09;4911793;29;20044;-67
2022/03/10 12:51:02;;;;;;;25.33;15.27;;;;;;;-145.18;47.28;46879.19;4911892;29;20051;-67
2022/03/10 12:53:32;;;;;;;21.43;14.47;;;;;;;-145.18;48.45;46857.69;4911475;29;20126;-67
2022/03/10 12:55:57;;;;;;;22.63;15.30;;;;;;;-145.18;42.92;46855.72;4910898;29;20356;-67
2022/03/10 12:58:31;;;;;;;24.17;15.90;;;;;;;-145.18;44.65;46836.19;4910432;29;20107;-67
2022/03/10 13:01:07;;;;;;;22.43;15.63;;;;;;;-145.18;44.59;46845.97;4911315;29;20127;-67
2022/03/10 13:03:37;;;;;;;23.50;15.93;;;;;;;-145.18;43.54;46859.63;4911199;29;20079;-67
2022/03/10 13:06:08;;;;;;;29.63;17.30;;;;;;;-145.18;43.82;46855.72;4911103;29;20107;-67
2022/03/10 13:08:40;;;;;;;26.93;16.00;;;;;;;-145.18;42.60;46814.72;4911410;29;20047;-67
2022/03/10 13:11:06;;;;;;;24.03;15.83;;;;;;;-145.18;40.48;46834.25;4911186;29;20044;-67
2022/03/10 13:13:31;;;;;;;28.70;16.47;;;;;;;-145.18;40.03;46826.44;4911229;29;20044;-67
2022/03/10 13:16:06;;;;;;;22.47;16.20;;;;;;;-145.18;39.05;46818.63;4910447;29;20044;-67
2022/03/10 13:18:39;;;;;;;23.45;17.10;;;;;;;-145.18;38.79;46818.63;4911380;29;20047;-67
2022/03/10 13:21:08;;;;;;;25.23;16.40;;;;;;;-145.18;40.32;46867.44;4910690;29;20048;-67
2022/03/10 13:23:34;;;;;;;23.23;16.70;;;;;;;-145.18;41.36;46824.47;4911319;29;20067;-67
2022/03/10 13:25:59;;;;;;;24.17;16.33;;;;;;;-145.18;38.53;46824.47;4910499;29;20044;-67
2022/03/10 13:28:25;;;;;;;23.23;15.90;;;;;;;-145.18;39.36;46812.75;4911365;29;20142;-67
2022/03/10 13:30:51;;;;;;;25.80;17.60;;;;;;;-145.18;37.73;46826.44;4909290;29;20050;-67
2022/03/10 13:33:18;;;;;;;27.13;17.47;;;;;;;-145.18;39.92;46834.25;4911614;29;20070;-67
2022/03/10 13:35:45;;;;;;;27.80;18.43;;;;;;;-145.18;41.35;46822.53;4893991;29;20041;-67
2022/03/10 13:38:19;;;;;;;24.83;17.63;;;;;;;-145.18;39.58;46826.44;4910748;29;20143;-68
2022/03/10 13:40:45;;;;;;;34.27;19.00;;;;;;;-145.18;37.59;46828.38;4910663;29;20048;-67
2022/03/10 13:43:21;;;;;;;31.40;18.70;;;;;;;-145.18;38.44;46816.66;4908281;29;20099;-67
2022/03/10 13:45:46;;;;;;;32.75;19.85;;;;;;;-145.18;37.92;46828.38;4906233;29;20095;-67
2022/03/10 13:48:20;;;;;;;23.83;17.20;;;;;;;-145.18;38.30;46826.44;4910526;29;20052;-68
2022/03/10 13:50:46;;;;;;;30.47;18.03;;;;;;;-145.18;38.31;46828.38;4910302;29;20107;-67
2022/03/10 13:53:12;;;;;;;27.90;18.70;;;;;;;-145.18;37.58;46822.53;4910366;29;20043;-67
2022/03/10 13:55:48;;;;;;;33.10;19.07;;;;;;;-145.18;38.85;46824.47;4909816;29;20044;-67
2022/03/10 13:58:14;;;;;;;35.63;19.03;;;;;;;-145.18;37.79;46822.53;4910549;29;20040;-67
2022/03/10 14:00:45;;;;;;;30.27;19.87;;;;;;;-145.18;38.96;46847.91;4909989;29;20485;-67